Time;durP1;ratioP1;P1;durP2;ratioP2;P2;SDS_P1;SDS_P2;PMS_P1;PMS_P2;Temp;Humidity;BMP_temperature;BMP_pressure;BME280_temperature;BME280_humidity;BME280_pressure;Samples;Min_cycle;Max_cycle;Signal;HPM_P1;HPM_P2
2022/11/08 00:01:59;;;;;;;13.38;3.78;;;13.20;99.90;;;;;;5051804;28;20033;-57
2022/11/08 00:04:31;;;;;;;14.13;4.38;;;;;;;;;;5051696;28;20036;-55
2022/11/08 00:15:10;;;;;;;8.98;3.50;;;13.10;99.90;;;;;;5059452;28;20041;-56
2022/11/08 00:17:35;;;;;;;17.60;4.85;;;13.00;99.90;;;;;;5051087;28;20041;-57
2022/11/08 00:20:01;;;;;;;11.00;3.53;;;13.00;99.90;;;;;;5051314;28;20047;-56
2022/11/08 00:22:30;;;;;;;13.13;3.97;;;12.90;99.90;;;;;;5051428;28;20041;-57
2022/11/08 00:24:55;;;;;;;14.95;3.63;;;13.00;99.90;;;;;;5052369;28;20071;-56
2022/11/08 00:27:23;;;;;;;16.50;4.00;;;12.90;99.90;;;;;;5057572;28;20522;-56
2022/11/08 00:29:48;;;;;;;10.55;3.58;;;12.80;99.90;;;;;;5056625;28;20102;-56
2022/11/08 00:32:16;;;;;;;9.18;3.22;;;;;;;;;;5051561;28;20037;-56
2022/11/08 00:34:42;;;;;;;14.85;3.60;;;13.00;99.90;;;;;;5051023;28;20128;-56
2022/11/08 00:37:08;;;;;;;13.85;3.58;;;13.20;99.90;;;;;;5050542;28;20128;-56
2022/11/08 00:39:34;;;;;;;10.68;3.28;;;13.10;99.90;;;;;;5052067;28;20037;-57
2022/11/08 00:42:00;;;;;;;15.05;3.65;;;13.20;99.90;;;;;;5063326;28;20087;-56
2022/11/08 00:44:25;;;;;;;10.75;3.20;;;12.90;99.90;;;;;;5053618;28;20033;-57
2022/11/08 00:46:51;;;;;;;12.73;3.53;;;13.40;99.90;;;;;;5103538;22;20216;-60
2022/11/08 00:49:18;;;;;;;13.55;3.45;;;13.50;99.90;;;;;;5035603;28;20037;-60
2022/11/08 00:51:44;;;;;;;10.55;3.13;;;12.80;99.90;;;;;;5021558;28;20107;-62
2022/11/08 00:54:13;;;;;;;7.15;2.80;;;12.90;99.90;;;;;;5034640;28;20530;-60
2022/11/08 00:56:39;;;;;;;10.98;3.50;;;13.20;99.90;;;;;;5043749;28;20068;-60
2022/11/08 00:59:05;;;;;;;10.77;2.85;;;12.80;99.90;;;;;;5033217;28;20030;-60
2022/11/08 01:01:30;;;;;;;14.75;3.22;;;12.90;99.90;;;;;;5035638;28;20033;-60
2022/11/08 01:03:56;;;;;;;12.40;3.05;;;13.00;99.90;;;;;;5046568;28;20496;-60
2022/11/08 01:06:23;;;;;;;10.35;3.30;;;12.90;99.90;;;;;;5035133;28;20068;-60
2022/11/08 01:08:49;;;;;;;11.40;3.35;;;12.90;99.90;;;;;;5046839;28;20092;-60
2022/11/08 01:11:18;;;;;;;12.80;3.22;;;12.70;99.90;;;;;;5034340;28;20065;-60
2022/11/08 01:13:44;;;;;;;10.63;3.33;;;12.90;99.90;;;;;;5039408;28;20037;-59
2022/11/08 01:16:12;;;;;;;13.10;4.15;;;13.00;99.90;;;;;;5044124;28;20526;-59
2022/11/08 01:18:39;;;;;;;13.10;4.03;;;12.90;99.90;;;;;;5036569;28;20033;-60
2022/11/08 01:21:05;;;;;;;9.60;3.17;;;12.80;99.90;;;;;;5039358;28;20112;-60
2022/11/08 01:23:32;;;;;;;8.65;3.60;;;12.50;99.90;;;;;;5035067;28;20061;-60
2022/11/08 01:26:03;;;;;;;12.65;3.33;;;;;;;;;;5034704;28;20221;-59
2022/11/08 01:28:29;;;;;;;9.35;3.08;;;;;;;;;;5023804;28;20509;-60
2022/11/08 01:30:54;;;;;;;12.27;2.83;;;12.90;99.90;;;;;;5032840;28;20037;-59
2022/11/08 01:33:20;;;;;;;9.75;3.25;;;;;;;;;;5023409;28;20041;-59
2022/11/08 01:35:48;;;;;;;12.73;4.00;;;12.50;99.90;;;;;;5034118;28;20511;-58
2022/11/08 01:38:13;;;;;;;9.07;2.90;;;12.90;99.90;;;;;;5021842;28;20695;-59
2022/11/08 01:40:46;;;;;;;10.55;3.28;;;;;;;;;;5031711;28;20068;-61
2022/11/08 01:43:24;;;;;;;13.50;3.63;;;13.10;99.90;;;;;;5037918;28;20501;-62
2022/11/08 01:46:08;;;;;;;12.20;3.08;;;13.00;99.90;;;;;;5039377;28;20170;-59
2022/11/08 01:48:37;;;;;;;14.40;3.23;;;12.20;99.90;;;;;;5033735;28;20503;-60
2022/11/08 01:51:05;;;;;;;11.70;3.13;;;12.60;99.90;;;;;;5035728;28;20335;-60
2022/11/08 01:53:31;;;;;;;13.85;4.15;;;;;;;;;;5048218;28;20520;-60
2022/11/08 01:55:58;;;;;;;9.80;3.42;;;12.40;99.90;;;;;;5015878;28;20121;-60
2022/11/08 01:58:27;;;;;;;8.85;3.15;;;12.60;99.90;;;;;;5042389;28;20040;-59
2022/11/08 02:00:53;;;;;;;12.40;3.42;;;12.70;99.90;;;;;;5033240;28;20048;-60
2022/11/08 02:03:19;;;;;;;14.93;4.68;;;11.80;99.90;;;;;;5036822;28;20546;-59
2022/11/08 02:05:46;;;;;;;9.93;3.40;;;12.00;99.90;;;;;;5044141;28;20490;-60
2022/11/08 02:08:27;;;;;;;13.43;3.80;;;;;;;;;;5043138;28;20037;-58
2022/11/08 02:10:53;;;;;;;11.77;3.50;;;11.20;99.90;;;;;;5039288;28;20411;-60
2022/11/08 02:13:27;;;;;;;9.18;3.45;;;;;;;;;;5038155;28;20036;-59
2022/11/08 02:15:53;;;;;;;13.35;3.70;;;11.70;99.90;;;;;;5036176;28;20353;-59
2022/11/08 02:18:22;;;;;;;11.70;3.53;;;11.60;99.90;;;;;;5031717;28;20031;-60
2022/11/08 02:21:06;;;;;;;8.10;3.35;;;12.00;99.90;;;;;;5039935;28;20029;-60
2022/11/08 02:23:52;;;;;;;9.43;3.25;;;11.40;99.90;;;;;;5041030;28;20099;-60
2022/11/08 02:26:24;;;;;;;13.88;3.83;;;12.00;99.90;;;;;;5030730;28;20116;-60
2022/11/08 02:28:50;;;;;;;13.45;3.53;;;11.30;99.90;;;;;;5030681;28;20037;-60
2022/11/08 02:31:18;;;;;;;10.65;3.50;;;11.80;99.90;;;;;;5040673;28;20025;-60
2022/11/08 02:33:45;;;;;;;10.85;3.60;;;10.90;99.90;;;;;;5025097;28;20033;-60
2022/11/08 02:36:18;;;;;;;10.73;3.33;;;11.70;99.90;;;;;;5037917;28;20048;-60
2022/11/08 02:38:48;;;;;;;9.18;3.33;;;11.10;99.90;;;;;;5044039;28;20087;-60
2022/11/08 02:41:13;;;;;;;12.02;3.42;;;10.90;99.90;;;;;;5039368;28;20121;-59
2022/11/08 02:43:39;;;;;;;11.02;4.18;;;11.10;99.90;;;;;;5041778;28;20442;-60
2022/11/08 02:46:05;;;;;;;15.05;4.30;;;11.00;99.90;;;;;;5033561;28;20033;-60
2022/11/08 02:48:30;;;;;;;14.48;3.88;;;10.90;99.90;;;;;;5038555;28;20060;-60
2022/11/08 02:50:56;;;;;;;10.90;3.85;;;10.80;99.90;;;;;;5048405;28;20483;-59
2022/11/08 02:53:21;;;;;;;13.10;4.22;;;10.90;99.90;;;;;;5051030;28;20025;-61
2022/11/08 02:55:47;;;;;;;9.65;3.40;;;10.90;99.90;;;;;;5039039;28;20045;-60
2022/11/08 02:58:13;;;;;;;10.27;3.33;;;11.10;99.90;;;;;;5047504;28;20434;-60
2022/11/08 03:00:39;;;;;;;10.15;3.58;;;10.70;99.90;;;;;;5045519;28;20071;-60
2022/11/08 03:03:05;;;;;;;13.35;4.47;;;11.10;99.90;;;;;;5040997;28;20041;-60
2022/11/08 03:05:31;;;;;;;10.40;3.60;;;11.00;99.90;;;;;;5039518;28;20036;-61
2022/11/08 03:07:57;;;;;;;8.90;3.35;;;11.30;99.90;;;;;;5039626;28;20048;-60
2022/11/08 03:10:25;;;;;;;13.45;3.65;;;11.00;99.90;;;;;;5039941;28;20063;-60
2022/11/08 03:12:57;;;;;;;13.07;3.83;;;11.00;99.90;;;;;;5039533;28;20042;-60
2022/11/08 03:15:23;;;;;;;11.38;3.83;;;11.00;99.90;;;;;;5034777;28;20052;-59
2022/11/08 03:17:49;;;;;;;11.85;3.90;;;11.10;99.90;;;;;;5049037;28;20034;-60
2022/11/08 03:20:14;;;;;;;10.57;4.25;;;11.00;99.90;;;;;;5040007;28;20041;-59
2022/11/08 03:22:40;;;;;;;11.55;3.85;;;10.90;99.90;;;;;;5038451;28;20482;-60
2022/11/08 03:25:06;;;;;;;13.52;4.57;;;10.90;99.90;;;;;;5039332;28;20215;-60
2022/11/08 03:27:31;;;;;;;12.52;3.72;;;11.00;99.90;;;;;;5036392;28;20069;-60
2022/11/08 03:29:57;;;;;;;8.70;3.85;;;10.70;99.90;;;;;;5038554;28;20033;-60
2022/11/08 03:32:23;;;;;;;11.05;3.72;;;10.80;99.90;;;;;;5035232;28;20124;-58
2022/11/08 03:34:48;;;;;;;9.65;3.78;;;10.80;99.90;;;;;;5037974;28;20620;-60
2022/11/08 03:37:14;;;;;;;11.38;3.22;;;10.90;99.90;;;;;;5044960;28;20175;-60
2022/11/08 03:39:40;;;;;;;11.50;4.72;;;;;;;;;;5020138;28;20079;-60
2022/11/08 03:42:06;;;;;;;10.65;3.15;;;10.80;99.90;;;;;;5039275;28;20033;-60
2022/11/08 03:44:32;;;;;;;18.00;4.07;;;10.60;99.90;;;;;;5049024;28;20029;-60
2022/11/08 03:46:59;;;;;;;13.50;4.18;;;10.70;99.90;;;;;;5037647;28;20041;-59
2022/11/08 03:49:25;;;;;;;11.75;3.33;;;10.70;99.90;;;;;;5048369;28;20453;-60
2022/11/08 03:51:54;;;;;;;13.20;3.55;;;11.10;99.90;;;;;;5036839;28;20044;-59
2022/11/08 03:54:20;;;;;;;10.30;3.75;;;11.20;99.90;;;;;;5035768;28;20387;-60
2022/11/08 03:56:45;;;;;;;12.18;3.55;;;10.70;99.90;;;;;;5036752;28;20045;-60
2022/11/08 03:59:11;;;;;;;11.23;3.42;;;11.20;99.90;;;;;;5033488;28;20029;-60
2022/11/08 04:01:38;;;;;;;15.73;3.45;;;10.70;99.90;;;;;;5040810;28;20044;-58
2022/11/08 04:04:05;;;;;;;10.23;3.15;;;10.70;99.90;;;;;;5047358;28;20116;-59
2022/11/08 04:06:30;;;;;;;11.90;3.70;;;10.70;99.90;;;;;;5045794;28;20498;-60
2022/11/08 04:08:56;;;;;;;9.52;3.53;;;10.50;99.90;;;;;;5050958;28;20033;-58
2022/11/08 04:16:52;;;;;;;11.40;4.13;;;10.40;99.90;;;;;;5034348;28;20041;-59
2022/11/08 04:22:03;;;;;;;9.63;3.60;;;;;;;;;;5035160;28;20068;-59
2022/11/08 04:24:29;;;;;;;13.38;3.97;;;;;;;;;;5041501;28;20079;-59
2022/11/08 04:26:54;;;;;;;8.95;3.50;;;10.60;99.90;;;;;;5042403;28;20520;-59
2022/11/08 04:29:20;;;;;;;15.07;4.03;;;10.50;99.90;;;;;;5050635;28;20032;-59
2022/11/08 04:31:46;;;;;;;10.50;3.88;;;;;;;;;;5031930;28;20100;-59
2022/11/08 04:34:11;;;;;;;7.68;3.45;;;10.80;99.90;;;;;;5037292;28;20037;-59
2022/11/08 04:36:37;;;;;;;10.23;3.88;;;10.70;99.90;;;;;;5039759;28;20036;-59
2022/11/08 04:39:03;;;;;;;10.15;3.60;;;;;;;;;;5033679;28;20033;-59
2022/11/08 04:41:29;;;;;;;11.82;3.90;;;10.60;99.90;;;;;;5041181;28;20038;-60
2022/11/08 04:43:56;;;;;;;10.63;3.38;;;10.90;99.90;;;;;;5032448;28;20026;-59
2022/11/08 04:46:26;;;;;;;13.57;3.95;;;10.70;99.90;;;;;;5021689;28;20076;-59
2022/11/08 04:48:53;;;;;;;10.18;3.28;;;;;;;;;;5030762;28;20033;-59
2022/11/08 04:51:21;;;;;;;10.85;3.60;;;10.60;99.90;;;;;;5036897;28;20041;-59
2022/11/08 04:53:48;;;;;;;12.65;4.38;;;;;;;;;;5035349;28;20040;-59
2022/11/08 04:56:15;;;;;;;12.18;3.53;;;;;;;;;;5037117;28;20403;-59
2022/11/08 04:58:48;;;;;;;10.63;3.95;;;11.10;99.90;;;;;;5020001;28;20047;-59
2022/11/08 05:01:16;;;;;;;10.48;3.67;;;11.30;99.90;;;;;;5026825;28;20059;-59
2022/11/08 05:03:42;;;;;;;12.25;3.90;;;;;;;;;;5040508;28;20086;-59
2022/11/08 05:06:17;;;;;;;8.45;3.90;;;10.80;99.90;;;;;;5035091;28;20477;-59
2022/11/08 05:08:43;;;;;;;12.93;3.78;;;10.80;99.90;;;;;;5038381;28;20086;-58
2022/11/08 05:11:12;;;;;;;11.60;3.47;;;10.70;99.90;;;;;;5034549;28;20108;-59
2022/11/08 05:13:38;;;;;;;10.18;3.33;;;10.60;99.90;;;;;;5038499;28;20044;-59
2022/11/08 05:16:15;;;;;;;9.10;3.75;;;10.50;99.90;;;;;;5045876;28;20414;-59
2022/11/08 05:18:41;;;;;;;8.00;3.28;;;10.70;99.90;;;;;;5036476;28;20094;-59
2022/11/08 05:23:54;;;;;;;8.13;3.08;;;10.70;99.90;;;;;;5047185;28;20282;-59
2022/11/08 05:26:20;;;;;;;10.05;3.30;;;10.80;99.90;;;;;;5043492;28;20040;-59
2022/11/08 05:28:46;;;;;;;9.07;3.28;;;10.80;99.90;;;;;;5034733;28;20044;-59
2022/11/08 05:31:12;;;;;;;7.65;3.20;;;10.60;99.90;;;;;;5024567;28;20502;-59
2022/11/08 05:33:38;;;;;;;13.45;3.72;;;10.90;99.90;;;;;;5033685;28;20048;-59
2022/11/08 05:36:09;;;;;;;11.38;3.97;;;10.70;99.90;;;;;;5048042;28;20436;-59
2022/11/08 05:38:36;;;;;;;12.25;3.92;;;10.60;99.90;;;;;;5042986;28;20110;-58
2022/11/08 05:41:10;;;;;;;10.82;4.05;;;10.90;99.90;;;;;;5040432;28;20036;-57
2022/11/08 05:43:36;;;;;;;8.60;3.63;;;10.20;99.90;;;;;;5032126;28;20122;-58
2022/11/08 05:46:01;;;;;;;10.35;3.60;;;10.60;99.90;;;;;;5035041;28;20072;-59
2022/11/08 05:48:27;;;;;;;10.88;4.10;;;10.40;99.90;;;;;;5040361;28;20044;-58
2022/11/08 05:50:53;;;;;;;12.40;4.57;;;10.70;99.90;;;;;;5028167;28;20045;-58
2022/11/08 05:53:19;;;;;;;9.20;3.95;;;10.00;99.90;;;;;;5040844;28;20056;-56
2022/11/08 05:55:44;;;;;;;14.90;3.88;;;10.60;99.90;;;;;;5039935;28;20052;-58
2022/11/08 05:58:10;;;;;;;10.45;4.00;;;10.50;99.90;;;;;;5033089;28;20092;-57
2022/11/08 06:00:36;;;;;;;10.52;3.92;;;10.60;99.90;;;;;;5034725;28;20556;-59
2022/11/08 06:03:03;;;;;;;8.38;3.80;;;10.90;99.90;;;;;;5037480;28;20033;-57
2022/11/08 06:05:29;;;;;;;8.95;3.55;;;10.60;99.90;;;;;;5023797;28;20025;-59
2022/11/08 06:07:54;;;;;;;8.63;3.83;;;10.70;99.90;;;;;;5028278;28;20098;-59
2022/11/08 06:10:20;;;;;;;10.85;3.88;;;9.90;99.90;;;;;;5049005;28;20037;-59
2022/11/08 06:12:46;;;;;;;9.82;4.05;;;10.50;99.90;;;;;;5031052;28;20068;-59
2022/11/08 06:15:11;;;;;;;8.07;3.22;;;10.60;99.90;;;;;;5053717;28;20069;-59
2022/11/08 06:17:37;;;;;;;10.75;3.53;;;10.50;99.90;;;;;;5036140;28;20038;-59
2022/11/08 06:20:06;;;;;;;9.77;3.10;;;10.80;99.90;;;;;;5035075;28;20055;-59
2022/11/08 06:22:33;;;;;;;9.38;3.30;;;10.80;99.90;;;;;;5050137;28;20033;-58
2022/11/08 06:24:59;;;;;;;7.68;3.00;;;10.60;99.90;;;;;;5045078;28;20033;-59
2022/11/08 06:27:24;;;;;;;9.65;3.05;;;10.70;99.90;;;;;;5050501;28;20517;-59
2022/11/08 06:29:50;;;;;;;7.93;2.90;;;11.00;99.90;;;;;;5051029;28;20044;-59
2022/11/08 06:32:16;;;;;;;7.30;2.85;;;;;;;;;;5053722;28;20032;-58
2022/11/08 06:34:41;;;;;;;8.98;3.38;;;10.80;99.90;;;;;;5049768;28;20391;-58
2022/11/08 06:37:07;;;;;;;10.10;4.07;;;10.80;99.90;;;;;;5039667;28;20037;-59
2022/11/08 06:39:33;;;;;;;12.80;3.72;;;;;;;;;;5040473;28;20032;-58
2022/11/08 06:42:00;;;;;;;9.30;2.97;;;10.60;99.90;;;;;;5045276;28;20117;-57
2022/11/08 06:44:25;;;;;;;8.80;2.85;;;10.90;99.90;;;;;;5045777;28;20104;-59
2022/11/08 06:49:19;;;;;;;7.50;2.50;;;11.00;99.90;;;;;;5027468;28;20123;-55
2022/11/08 06:51:45;;;;;;;8.27;2.58;;;11.00;99.90;;;;;;5024533;28;20068;-56
2022/11/08 06:54:10;;;;;;;8.27;2.83;;;11.00;99.90;;;;;;5019419;28;20062;-56
2022/11/08 06:56:36;;;;;;;8.20;3.30;;;11.00;99.90;;;;;;5034967;28;20037;-56
2022/11/08 06:59:02;;;;;;;8.60;2.67;;;11.10;99.90;;;;;;5035481;28;20053;-58
2022/11/08 07:01:27;;;;;;;7.85;3.03;;;10.40;99.90;;;;;;5036103;28;20487;-57
2022/11/08 07:03:53;;;;;;;11.18;3.28;;;11.00;99.90;;;;;;5042689;28;20033;-57
2022/11/08 07:06:19;;;;;;;9.20;3.20;;;11.00;99.90;;;;;;5019960;28;20033;-56
2022/11/08 07:08:44;;;;;;;7.68;3.00;;;11.00;99.90;;;;;;5039332;28;20095;-58
2022/11/08 07:11:10;;;;;;;9.07;2.80;;;11.00;99.90;;;;;;5019209;28;20029;-58
2022/11/08 07:13:35;;;;;;;8.38;2.67;;;10.80;99.90;;;;;;5039040;28;20033;-57
2022/11/08 07:16:01;;;;;;;7.38;2.40;;;11.00;99.90;;;;;;5034822;28;20060;-58
2022/11/08 07:18:27;;;;;;;7.95;2.70;;;11.00;99.90;;;;;;5036162;28;20068;-56
2022/11/08 07:20:57;;;;;;;8.25;2.70;;;;;;;;;;5042437;28;20033;-57
2022/11/08 07:23:23;;;;;;;7.25;2.55;;;11.20;99.90;;;;;;5033396;28;20033;-57
2022/11/08 07:25:48;;;;;;;8.43;2.97;;;10.90;99.90;;;;;;5040429;28;20103;-57
2022/11/08 07:28:16;;;;;;;10.70;2.50;;;;;;;;;;5035756;28;20557;-56
2022/11/08 07:30:43;;;;;;;7.65;2.63;;;10.90;99.90;;;;;;5036453;28;20056;-57
2022/11/08 07:33:08;;;;;;;6.65;3.13;;;10.70;99.90;;;;;;5035531;28;20033;-58
2022/11/08 07:35:34;;;;;;;8.90;2.78;;;;;;;;;;5034339;28;20048;-56
2022/11/08 07:38:00;;;;;;;9.48;2.70;;;11.00;99.90;;;;;;5041106;28;20068;-58
2022/11/08 07:40:26;;;;;;;6.75;2.40;;;11.00;99.90;;;;;;5019101;28;20037;-56
2022/11/08 07:42:51;;;;;;;10.70;2.90;;;11.00;99.90;;;;;;5039986;28;20487;-57
2022/11/08 07:45:17;;;;;;;8.38;2.75;;;10.90;99.90;;;;;;5035070;28;20037;-58
2022/11/08 07:47:43;;;;;;;8.02;2.70;;;;;;;;;;5035654;28;20034;-57
2022/11/08 07:50:09;;;;;;;8.48;2.85;;;10.90;99.90;;;;;;5033592;28;20110;-57
2022/11/08 07:52:35;;;;;;;7.20;2.95;;;11.00;99.90;;;;;;5019043;28;20137;-56
2022/11/08 07:55:00;;;;;;;6.88;2.40;;;10.90;99.90;;;;;;5020374;28;20041;-57
2022/11/08 07:57:26;;;;;;;8.38;2.88;;;10.90;99.90;;;;;;5035286;28;20048;-57
2022/11/08 07:59:52;;;;;;;8.13;3.30;;;;;;;;;;5031763;28;20047;-58
2022/11/08 08:02:18;;;;;;;9.98;2.60;;;11.00;99.90;;;;;;5025587;28;20034;-58
2022/11/08 08:04:43;;;;;;;7.28;2.60;;;11.10;99.90;;;;;;5034241;28;20056;-56
2022/11/08 08:07:11;;;;;;;7.50;2.53;;;11.00;99.90;;;;;;5026352;28;20029;-56
2022/11/08 08:09:37;;;;;;;7.25;2.83;;;;;;;;;;5030454;28;20041;-56
2022/11/08 08:12:03;;;;;;;10.50;4.57;;;;;;;;;;5007885;28;20049;-58
2022/11/08 08:14:29;;;;;;;10.30;3.05;;;11.10;99.90;;;;;;5031698;28;20041;-58
2022/11/08 08:16:56;;;;;;;8.32;2.83;;;11.20;99.90;;;;;;5030961;28;20094;-58
2022/11/08 08:19:21;;;;;;;6.68;3.08;;;11.20;99.90;;;;;;5027413;28;20053;-57
2022/11/08 08:21:47;;;;;;;7.45;3.03;;;;;;;;;;5031370;28;20715;-58
2022/11/08 08:24:13;;;;;;;9.90;2.60;;;11.30;99.90;;;;;;5031287;28;20116;-58
2022/11/08 08:26:39;;;;;;;10.27;2.92;;;12.00;99.90;;;;;;5029107;28;20156;-57
2022/11/08 08:29:05;;;;;;;6.85;2.72;;;11.40;99.90;;;;;;5030811;28;20041;-57
2022/11/08 08:31:31;;;;;;;6.97;2.40;;;;;;;;;;5030730;28;20045;-58
2022/11/08 08:33:57;;;;;;;8.52;2.65;;;;;;;;;;5028294;28;20088;-59
2022/11/08 08:36:22;;;;;;;9.07;2.72;;;11.70;99.90;;;;;;5030948;28;20038;-58
2022/11/08 08:38:48;;;;;;;7.65;2.28;;;11.80;99.90;;;;;;5029457;28;20483;-56
2022/11/08 08:41:13;;;;;;;7.15;2.63;;;12.00;99.90;;;;;;5012966;28;20207;-58
2022/11/08 08:43:40;;;;;;;7.40;2.55;;;;;;;;;;5030390;28;20037;-58
2022/11/08 08:46:08;;;;;;;8.60;2.63;;;12.00;99.90;;;;;;5030796;28;20053;-57
2022/11/08 08:48:34;;;;;;;7.18;3.30;;;;;;;;;;5029445;28;20037;-58
2022/11/08 08:51:01;;;;;;;9.38;2.90;;;;;;;;;;5030300;28;20487;-58
2022/11/08 08:53:26;;;;;;;6.75;2.35;;;12.00;99.90;;;;;;5035573;28;20037;-56
2022/11/08 08:55:52;;;;;;;7.07;2.75;;;;;;;;;;5017484;28;20048;-56
2022/11/08 08:58:19;;;;;;;9.27;3.22;;;12.20;99.90;;;;;;5032145;28;20407;-53
2022/11/08 09:00:45;;;;;;;8.32;2.58;;;12.10;99.90;;;;;;5036537;28;20048;-57
2022/11/08 09:03:11;;;;;;;7.68;3.00;;;;;;;;;;5038887;28;20043;-55
2022/11/08 09:05:42;;;;;;;8.27;2.60;;;12.20;99.90;;;;;;5036902;28;20229;-56
2022/11/08 09:08:13;;;;;;;7.22;2.70;;;12.40;99.90;;;;;;5037525;28;20095;-56
2022/11/08 09:10:38;;;;;;;7.13;2.50;;;12.30;99.90;;;;;;5035016;28;20098;-55
2022/11/08 09:13:05;;;;;;;6.70;2.58;;;;;;;;;;5036642;28;20491;-56
2022/11/08 09:15:30;;;;;;;5.35;2.45;;;12.30;99.90;;;;;;5026891;28;20112;-56
2022/11/08 09:17:56;;;;;;;6.55;2.60;;;12.00;99.90;;;;;;5035236;28;20542;-58
2022/11/08 09:20:23;;;;;;;6.72;2.80;;;;;;;;;;5038075;28;20087;-57
2022/11/08 09:22:49;;;;;;;8.40;2.58;;;12.70;99.90;;;;;;5035105;28;20457;-57
2022/11/08 09:25:15;;;;;;;6.38;2.17;;;;;;;;;;5036475;28;20056;-52
2022/11/08 09:27:41;;;;;;;5.70;2.10;;;;;;;;;;5034330;28;20040;-57
2022/11/08 09:30:07;;;;;;;6.50;2.67;;;12.50;99.90;;;;;;5036413;28;20037;-55
2022/11/08 09:32:33;;;;;;;6.75;2.80;;;;;;;;;;5033303;28;20115;-53
2022/11/08 09:34:59;;;;;;;7.70;2.53;;;12.90;99.90;;;;;;5035538;28;20466;-55
2022/11/08 09:37:25;;;;;;;10.57;2.80;;;12.60;99.90;;;;;;5038379;28;20073;-56
2022/11/08 09:39:51;;;;;;;6.47;2.67;;;12.70;99.90;;;;;;5013125;28;20049;-56
2022/11/08 09:42:52;;;;;;;6.25;2.10;;;12.70;99.90;;;;;;5037191;28;20112;-53
2022/11/08 09:45:24;;;;;;;9.68;2.50;;;12.80;99.90;;;;;;5011114;28;20040;-56
2022/11/08 09:48:02;;;;;;;6.25;2.08;;;;;;;;;;5034481;28;20445;-56
2022/11/08 09:50:33;;;;;;;5.90;2.25;;;12.70;99.90;;;;;;5007806;28;20033;-53
2022/11/08 09:53:08;;;;;;;7.63;2.72;;;12.80;99.90;;;;;;5032637;28;20327;-57
2022/11/08 09:55:41;;;;;;;7.15;2.45;;;12.90;99.90;;;;;;5032910;28;20060;-57
2022/11/08 09:58:42;;;;;;;7.03;2.10;;;12.80;99.90;;;;;;5029586;28;20226;-55
2022/11/08 10:01:12;;;;;;;7.00;2.50;;;;;;;;;;5011919;28;20042;-56
2022/11/08 10:03:41;;;;;;;6.35;2.00;;;12.70;99.90;;;;;;5038974;28;20029;-56
2022/11/08 10:06:51;;;;;;;6.47;2.03;;;12.70;99.90;;;;;;5030699;28;20132;-56
2022/11/08 10:09:35;;;;;;;9.77;2.45;;;12.70;99.90;;;;;;5019729;28;20096;-57
2022/11/08 10:12:17;;;;;;;6.10;1.80;;;;;;;;;;5030396;28;20264;-56
2022/11/08 10:14:45;;;;;;;5.45;2.10;;;12.70;99.90;;;;;;5031504;28;20037;-58
2022/11/08 10:17:30;;;;;;;6.35;2.05;;;;;;;;;;5030739;28;20064;-56
2022/11/08 10:20:07;;;;;;;7.03;2.45;;;13.20;99.90;;;;;;5011020;28;20180;-54
2022/11/08 10:22:45;;;;;;;5.97;2.00;;;;;;;;;;5032099;28;20509;-55
2022/11/08 10:25:37;;;;;;;6.30;2.20;;;12.70;99.90;;;;;;5036033;28;20033;-56
2022/11/08 10:28:04;;;;;;;7.35;2.00;;;12.80;99.90;;;;;;5032952;28;20033;-56
2022/11/08 10:30:35;;;;;;;6.72;1.77;;;;;;;;;;5035633;28;20045;-56
2022/11/08 10:33:12;;;;;;;6.68;2.15;;;12.90;99.90;;;;;;5027282;28;20446;-55
2022/11/08 10:35:41;;;;;;;6.30;2.25;;;;;;;;;;5035344;28;20407;-53
2022/11/08 10:38:17;;;;;;;5.50;2.05;;;13.00;99.90;;;;;;5037206;28;20069;-58
2022/11/08 10:40:57;;;;;;;5.65;2.20;;;;;;;;;;5034130;28;20034;-56
2022/11/08 10:43:31;;;;;;;5.35;1.92;;;12.90;99.90;;;;;;5034826;28;20419;-57
2022/11/08 10:45:57;;;;;;;7.55;2.20;;;12.90;99.90;;;;;;5034724;28;20064;-56
2022/11/08 10:48:23;;;;;;;5.35;2.25;;;;;;;;;;5033298;28;20072;-56
2022/11/08 10:50:50;;;;;;;5.88;2.08;;;;;;;;;;5034228;28;20096;-56
2022/11/08 10:53:43;;;;;;;7.38;2.30;;;13.30;99.90;;;;;;5031259;28;20094;-56
2022/11/08 10:56:09;;;;;;;6.75;2.25;;;13.00;99.90;;;;;;5038676;28;20046;-54
2022/11/08 10:58:42;;;;;;;7.15;2.33;;;13.70;99.90;;;;;;5035322;28;20041;-56
2022/11/08 11:01:16;;;;;;;8.33;2.47;;;13.30;99.90;;;;;;5037787;28;20037;-58
2022/11/08 11:03:42;;;;;;;6.68;2.10;;;13.30;99.90;;;;;;5024071;28;20045;-56
2022/11/08 11:06:29;;;;;;;7.00;2.10;;;;;;;;;;5037458;28;20120;-57
2022/11/08 11:08:59;;;;;;;6.25;2.00;;;;;;;;;;5040386;28;20044;-56
2022/11/08 11:11:44;;;;;;;6.32;1.88;;;13.40;99.90;;;;;;5018689;28;20045;-57
2022/11/08 11:14:17;;;;;;;5.78;2.03;;;;;;;;;;5026936;28;20037;-58
2022/11/08 11:16:56;;;;;;;7.43;2.80;;;13.50;99.90;;;;;;5033306;28;20037;-56
2022/11/08 11:19:23;;;;;;;7.60;2.17;;;;;;;;;;5035381;28;20076;-58
2022/11/08 11:22:10;;;;;;;6.80;2.38;;;;;;;;;;5035019;28;20069;-57
2022/11/08 11:24:45;;;;;;;5.82;2.22;;;;;;;;;;5035830;28;20098;-58
2022/11/08 11:27:38;;;;;;;8.27;2.20;;;;;;;;;;5034363;28;20037;-56
2022/11/08 11:30:22;;;;;;;5.47;1.75;;;13.90;99.90;;;;;;5035400;28;20045;-56
2022/11/08 11:33:17;;;;;;;6.93;1.90;;;13.70;99.90;;;;;;5034933;28;20507;-57
2022/11/08 11:35:46;;;;;;;5.00;1.73;;;14.00;99.90;;;;;;5038655;28;20029;-56
2022/11/08 11:38:56;;;;;;;5.05;2.00;;;14.20;99.90;;;;;;5039350;28;20037;-56
2022/11/08 11:41:45;;;;;;;7.88;2.22;;;14.30;99.90;;;;;;5032986;28;20041;-55
2022/11/08 11:44:20;;;;;;;4.50;1.75;;;14.60;99.90;;;;;;5024438;28;20504;-57
2022/11/08 11:47:03;;;;;;;7.75;2.55;;;;;;;;;;5018957;28;20490;-56
2022/11/08 11:49:30;;;;;;;7.80;2.15;;;14.70;99.90;;;;;;5034621;28;20107;-56
2022/11/08 11:51:57;;;;;;;5.00;2.10;;;14.20;99.90;;;;;;5019795;28;20037;-57
2022/11/08 11:54:27;;;;;;;5.30;1.98;;;14.10;99.90;;;;;;5031197;28;20043;-56
2022/11/08 11:56:59;;;;;;;7.25;2.35;;;14.50;99.90;;;;;;5022064;28;20569;-56
2022/11/08 11:59:42;;;;;;;6.22;2.42;;;14.20;99.90;;;;;;5029249;28;20040;-57
2022/11/08 12:02:25;;;;;;;6.15;1.90;;;14.20;99.90;;;;;;5041668;28;20043;-56
2022/11/08 12:05:21;;;;;;;5.80;2.00;;;14.50;99.90;;;;;;5033904;28;20033;-56
2022/11/08 12:07:57;;;;;;;5.55;1.88;;;;;;;;;;5036164;28;20608;-57
2022/11/08 12:10:55;;;;;;;5.20;2.10;;;15.00;99.90;;;;;;5017939;28;20119;-56
2022/11/08 12:13:39;;;;;;;7.80;2.25;;;14.90;99.90;;;;;;5032877;28;20056;-56
2022/11/08 12:16:20;;;;;;;6.68;2.10;;;15.20;99.90;;;;;;5027810;28;20050;-56
2022/11/08 12:18:52;;;;;;;5.65;1.75;;;15.40;99.90;;;;;;5037702;28;20111;-56
2022/11/08 12:21:38;;;;;;;7.15;2.00;;;15.70;99.90;;;;;;5038601;28;20040;-56
2022/11/08 12:24:26;;;;;;;6.18;1.95;;;16.00;99.90;;;;;;5039591;28;20529;-57
2022/11/08 12:27:22;;;;;;;5.25;1.98;;;16.10;99.90;;;;;;5028684;28;20038;-56
2022/11/08 12:30:14;;;;;;;6.45;2.10;;;16.70;99.90;;;;;;5034507;28;20052;-57
2022/11/08 12:32:42;;;;;;;4.93;1.83;;;16.80;99.90;;;;;;5019771;28;20044;-57
2022/11/08 12:35:26;;;;;;;7.43;1.80;;;16.90;99.90;;;;;;5014685;28;20045;-57
2022/11/08 12:38:34;;;;;;;5.70;1.83;;;17.20;99.90;;;;;;5040120;28;20076;-57
2022/11/08 12:41:22;;;;;;;5.63;1.90;;;17.10;46.20;;;;;;4969963;28;20041;-58
2022/11/08 12:44:10;;;;;;;9.90;2.13;;;17.00;1.00;;;;;;5029721;28;20554;-56
2022/11/08 12:46:45;;;;;;;6.78;2.05;;;17.70;99.90;;;;;;5020470;28;20041;-57
2022/11/08 12:49:27;;;;;;;6.32;2.47;;;17.80;99.90;;;;;;5081955;22;20475;-58
2022/11/08 12:51:58;;;;;;;5.53;2.00;;;17.50;99.90;;;;;;5075820;28;20041;-58
2022/11/08 12:54:44;;;;;;;5.18;1.90;;;17.90;99.90;;;;;;5069788;28;20606;-56
2022/11/08 12:57:15;;;;;;;5.13;2.03;;;17.90;99.90;;;;;;5050478;28;20044;-58
2022/11/08 12:59:44;;;;;;;4.97;1.92;;;18.40;1.00;;;;;;5053770;28;20132;-58
2022/11/08 13:02:21;;;;;;;7.60;2.20;;;17.90;1.00;;;;;;5056149;28;20075;-57
2022/11/08 13:04:54;;;;;;;5.65;2.28;;;18.30;48.40;;;;;;5033111;28;20459;-58
2022/11/08 13:07:40;;;;;;;6.05;1.67;;;17.60;99.90;;;;;;5046358;28;20044;-58
2022/11/08 13:10:14;;;;;;;5.65;2.13;;;17.50;99.90;;;;;;5051943;28;20045;-58
2022/11/08 13:13:06;;;;;;;6.22;1.90;;;17.30;99.90;;;;;;5049863;28;20182;-58
2022/11/08 13:15:32;;;;;;;6.38;2.25;;;18.90;99.90;;;;;;5047852;28;20040;-58
2022/11/08 13:18:06;;;;;;;6.72;1.75;;;18.00;99.90;;;;;;5052176;28;20508;-58
2022/11/08 13:20:46;;;;;;;4.88;1.70;;;18.20;99.90;;;;;;5051783;28;20033;-58
2022/11/08 13:23:23;;;;;;;6.53;1.77;;;17.80;99.90;;;;;;5043428;28;20025;-58
2022/11/08 13:25:51;;;;;;;8.23;2.10;;;18.60;99.90;;;;;;5056138;28;20482;-58
2022/11/08 13:28:39;;;;;;;4.18;1.75;;;18.50;99.90;;;;;;5048330;28;20036;-58
2022/11/08 13:31:24;;;;;;;6.28;1.80;;;17.10;99.90;;;;;;5056209;28;20502;-57
2022/11/08 13:34:18;;;;;;;5.82;1.92;;;17.10;99.90;;;;;;5053161;28;20033;-57
2022/11/08 13:37:02;;;;;;;6.60;2.35;;;17.00;99.90;;;;;;5056136;28;20127;-57
2022/11/08 13:39:34;;;;;;;5.28;1.67;;;17.30;1.00;;;;;;5050342;28;20553;-58
2022/11/08 13:42:00;;;;;;;5.53;1.88;;;;;;;;;;5057308;28;20036;-58